createdAt,value
2022-08-19T00:00:12.092Z,73.46
2022-08-19T00:01:05.898Z,73.44
2022-08-19T00:01:40.951Z,73.59
2022-08-19T00:02:13.970Z,73.56
2022-08-19T00:02:50.051Z,73.71
2022-08-19T00:03:23.564Z,73.77
2022-08-19T00:04:01.346Z,73.81
2022-08-19T00:04:38.241Z,73.98
2022-08-19T00:05:12.984Z,74.08
2022-08-19T00:05:46.767Z,74.08
2022-08-19T00:06:19.969Z,74.21
2022-08-19T00:06:54.730Z,74.18
2022-08-19T00:07:27.890Z,74.22
2022-08-19T00:08:01.223Z,74.30
2022-08-19T00:08:35.178Z,74.42
2022-08-19T00:09:11.931Z,74.44
2022-08-19T00:09:45.150Z,74.46
2022-08-19T00:10:20.413Z,74.47
2022-08-19T00:10:53.584Z,74.38
2022-08-19T00:11:28.889Z,74.36
2022-08-19T00:12:02.940Z,74.22
2022-08-19T00:12:36.830Z,74.09
2022-08-19T00:13:20.318Z,73.84
2022-08-19T00:13:54.325Z,73.66
2022-08-19T00:14:33.649Z,73.43
2022-08-19T00:15:12.893Z,73.28
2022-08-19T00:15:45.983Z,73.32
2022-08-19T00:16:25.161Z,73.11
2022-08-19T00:17:00.008Z,73.01
2022-08-19T00:17:33.376Z,73.03
2022-08-19T00:18:06.417Z,72.85
2022-08-19T00:18:39.502Z,72.74
2022-08-19T00:19:13.764Z,72.83
2022-08-19T00:19:47.262Z,72.87
2022-08-19T00:20:22.965Z,72.95
2022-08-19T00:20:56.672Z,73.18
2022-08-19T00:21:30.079Z,73.19
2022-08-19T00:22:04.481Z,73.19
2022-08-19T00:22:39.251Z,73.32
2022-08-19T00:23:12.702Z,73.60
2022-08-19T00:23:45.866Z,73.75
2022-08-19T00:24:20.161Z,73.83
2022-08-19T00:24:53.533Z,74.23
2022-08-19T00:25:30.407Z,74.39
2022-08-19T00:26:06.296Z,74.39
2022-08-19T00:26:40.787Z,74.24
2022-08-19T00:27:25.657Z,74.29
2022-08-19T00:28:00.895Z,74.17
2022-08-19T00:28:37.072Z,73.87
2022-08-19T00:29:13.360Z,73.63
2022-08-19T00:29:46.480Z,73.44
2022-08-19T00:30:28.399Z,73.27
2022-08-19T00:31:01.938Z,73.28
2022-08-19T00:31:35.374Z,73.33
2022-08-19T00:32:10.716Z,73.30
2022-08-19T00:32:44.156Z,73.39
2022-08-19T00:33:17.805Z,73.32
2022-08-19T00:33:51.784Z,73.04
2022-08-19T00:34:29.932Z,72.95
2022-08-19T00:35:03.159Z,72.92
2022-08-19T00:35:36.359Z,73.12
2022-08-19T00:36:10.570Z,73.23
2022-08-19T00:36:44.730Z,73.36
2022-08-19T00:37:17.929Z,73.41
2022-08-19T00:37:51.884Z,73.57
2022-08-19T00:38:27.266Z,73.56
2022-08-19T00:39:11.386Z,73.59
2022-08-19T00:39:44.599Z,73.62
2022-08-19T00:40:20.526Z,73.64
2022-08-19T00:40:53.735Z,73.63
2022-08-19T00:41:27.879Z,73.58
2022-08-19T00:42:01.131Z,73.65
2022-08-19T00:42:34.456Z,73.60
2022-08-19T00:43:14.321Z,73.57
2022-08-19T00:44:05.610Z,73.70
2022-08-19T00:44:39.831Z,73.47
2022-08-19T00:45:18.466Z,73.38
2022-08-19T00:45:52.938Z,73.49
2022-08-19T00:46:27.073Z,73.61
2022-08-19T00:47:01.067Z,73.62
2022-08-19T00:47:34.466Z,73.72
2022-08-19T00:48:14.751Z,73.94
2022-08-19T00:48:48.436Z,73.98
2022-08-19T00:49:27.868Z,73.56
2022-08-19T00:50:01.207Z,73.27
2022-08-19T00:50:35.711Z,73.18
2022-08-19T00:51:30.841Z,73.05
2022-08-19T00:52:15.378Z,72.91
2022-08-19T00:52:52.352Z,72.81
2022-08-19T00:53:28.759Z,72.69
2022-08-19T00:54:03.959Z,72.54
2022-08-19T00:54:40.546Z,72.65
2022-08-19T00:55:22.048Z,72.69
2022-08-19T00:55:59.535Z,72.49
2022-08-19T00:56:32.791Z,72.34
2022-08-19T00:57:10.691Z,72.37
2022-08-19T00:57:49.595Z,72.47
2022-08-19T00:58:28.753Z,72.38
2022-08-19T00:59:10.527Z,72.41
2022-08-19T01:00:00.325Z,72.45
2022-08-19T01:00:38.429Z,72.54
2022-08-19T01:01:12.206Z,72.55
2022-08-19T01:01:47.208Z,72.40
2022-08-19T01:02:21.057Z,72.42
2022-08-19T01:02:55.300Z,72.37
2022-08-19T01:03:56.914Z,72.43
2022-08-19T01:04:23.480Z,72.37
2022-08-19T01:04:57.455Z,72.50
2022-08-19T01:05:31.201Z,72.44
2022-08-19T01:06:04.396Z,72.56
2022-08-19T01:06:39.506Z,72.76
2022-08-19T01:07:15.212Z,72.95
2022-08-19T01:07:52.884Z,73.10
2022-08-19T01:08:26.282Z,73.16
2022-08-19T01:09:00.878Z,73.11
2022-08-19T01:09:35.336Z,72.98
2022-08-19T01:10:17.681Z,72.98
2022-08-19T01:10:59.442Z,73.03
2022-08-19T01:11:42.299Z,73.14
2022-08-19T01:12:17.009Z,73.08
2022-08-19T01:12:52.309Z,72.94
2022-08-19T01:13:49.395Z,72.83
2022-08-19T01:14:25.518Z,72.79
2022-08-19T01:15:00.243Z,72.79
2022-08-19T01:15:39.683Z,72.79
2022-08-19T01:16:14.416Z,72.92
2022-08-19T01:16:48.303Z,72.89
2022-08-19T01:17:22.390Z,72.74
2022-08-19T01:17:58.200Z,72.68
2022-08-19T01:18:33.697Z,72.65
2022-08-19T01:19:26.353Z,72.63
2022-08-19T01:19:59.839Z,72.46
2022-08-19T01:20:35.794Z,71.59
2022-08-19T01:21:48.677Z,71.46
2022-08-19T01:22:30.063Z,71.55
2022-08-19T01:23:04.620Z,71.26
2022-08-19T01:23:46.607Z,71.24
2022-08-19T01:24:19.829Z,71.45
2022-08-19T01:24:53.568Z,71.40
2022-08-19T01:25:36.403Z,71.31
2022-08-19T01:26:15.059Z,71.37
2022-08-19T01:26:48.866Z,71.53
2022-08-19T01:27:22.411Z,71.58
2022-08-19T01:27:55.742Z,71.72
2022-08-19T01:28:39.865Z,72.01
2022-08-19T01:29:13.993Z,72.18
2022-08-19T01:29:49.040Z,72.31
2022-08-19T01:30:26.728Z,72.59
2022-08-19T01:31:00.105Z,72.95
2022-08-19T01:31:33.553Z,73.20
2022-08-19T01:32:09.052Z,73.26
2022-08-19T01:33:03.230Z,73.37
2022-08-19T01:33:36.484Z,73.44
2022-08-19T01:34:10.326Z,73.41
2022-08-19T01:34:48.169Z,73.25
2022-08-19T01:35:24.639Z,73.21
2022-08-19T01:36:10.525Z,73.08
2022-08-19T01:36:50.433Z,72.88
2022-08-19T01:37:24.918Z,72.57
2022-08-19T01:38:07.231Z,72.46
2022-08-19T01:38:44.640Z,72.13
2022-08-19T01:39:24.289Z,72.18
2022-08-19T01:39:58.188Z,72.12
2022-08-19T01:40:34.573Z,72.04
2022-08-19T01:41:10.819Z,72.13
2022-08-19T01:41:44.694Z,72.21
2022-08-19T01:42:18.434Z,72.22
2022-08-19T01:42:52.409Z,72.25
2022-08-19T01:43:25.789Z,72.20
2022-08-19T01:44:16.914Z,72.22
2022-08-19T01:44:52.349Z,72.49
2022-08-19T01:45:28.843Z,72.28
2022-08-19T01:46:02.098Z,72.17
2022-08-19T01:46:35.652Z,72.05
2022-08-19T01:47:10.877Z,72.11
2022-08-19T01:47:44.402Z,72.07
2022-08-19T01:48:31.566Z,71.98
2022-08-19T01:49:07.286Z,72.02
2022-08-19T01:49:40.610Z,72.17
2022-08-19T01:50:15.321Z,72.11
2022-08-19T01:50:49.194Z,72.10
2022-08-19T01:51:22.649Z,72.28
2022-08-19T01:51:56.239Z,72.24
2022-08-19T01:52:29.345Z,72.34
2022-08-19T01:53:06.730Z,72.49
2022-08-19T01:53:41.932Z,72.70
2022-08-19T01:54:23.394Z,72.87
2022-08-19T01:55:01.248Z,72.97
2022-08-19T01:55:40.846Z,73.11
2022-08-19T01:56:14.807Z,73.19
2022-08-19T01:56:50.089Z,73.28
2022-08-19T01:57:24.401Z,73.39
2022-08-19T01:58:01.317Z,73.49
2022-08-19T01:58:46.360Z,73.60
2022-08-19T01:59:23.461Z,73.65
2022-08-19T01:59:57.947Z,73.62
2022-08-19T02:00:33.714Z,73.67
2022-08-19T02:01:08.674Z,73.56
2022-08-19T02:01:42.491Z,73.57
2022-08-19T02:02:15.853Z,73.47
2022-08-19T02:02:49.189Z,73.45
2022-08-19T02:03:22.410Z,73.49
2022-08-19T02:03:56.880Z,73.42
2022-08-19T02:04:30.251Z,73.39
2022-08-19T02:05:05.420Z,73.26
2022-08-19T02:05:39.896Z,73.37
2022-08-19T02:06:13.444Z,73.30
2022-08-19T02:06:46.612Z,73.44
2022-08-19T02:07:23.033Z,73.54
2022-08-19T02:07:57.721Z,73.42
2022-08-19T02:08:31.715Z,73.27
2022-08-19T02:09:09.389Z,73.06
2022-08-19T02:09:42.899Z,73.07
2022-08-19T02:10:21.012Z,73.12
2022-08-19T02:10:54.949Z,73.14
2022-08-19T02:11:32.952Z,73.17
2022-08-19T02:12:09.080Z,73.12
2022-08-19T02:12:42.298Z,73.02
2022-08-19T02:13:15.400Z,73.03
2022-08-19T02:13:50.635Z,72.78
2022-08-19T02:14:24.715Z,72.69
2022-08-19T02:14:58.348Z,72.70
2022-08-19T02:15:31.499Z,72.83
2022-08-19T02:16:04.697Z,72.96
2022-08-19T02:16:38.752Z,73.11
2022-08-19T02:17:11.760Z,73.28
2022-08-19T02:17:44.978Z,73.32
2022-08-19T02:18:18.201Z,73.29
2022-08-19T02:18:52.332Z,73.37
2022-08-19T02:19:25.570Z,73.41
2022-08-19T02:19:58.999Z,73.44
2022-08-19T02:20:32.405Z,73.37
2022-08-19T02:21:05.887Z,73.33
2022-08-19T02:21:39.106Z,73.18
2022-08-19T02:22:12.199Z,73.03
2022-08-19T02:22:45.502Z,72.94
2022-08-19T02:23:18.982Z,72.91
2022-08-19T02:23:52.262Z,72.96
2022-08-19T02:24:25.951Z,72.94
2022-08-19T02:24:59.176Z,72.98
2022-08-19T02:25:32.473Z,73.06
2022-08-19T02:26:06.333Z,73.02
2022-08-19T02:26:39.431Z,72.99
2022-08-19T02:27:12.951Z,72.84
2022-08-19T02:27:46.194Z,72.79
2022-08-19T02:28:19.433Z,72.87
2022-08-19T02:28:52.460Z,72.92
2022-08-19T02:29:25.618Z,72.91
2022-08-19T02:29:59.017Z,72.95
2022-08-19T02:30:32.577Z,73.00
2022-08-19T02:31:15.870Z,73.09
2022-08-19T02:31:49.329Z,73.14
2022-08-19T02:32:22.723Z,73.07
2022-08-19T02:32:56.165Z,73.11
2022-08-19T02:33:30.676Z,73.21
2022-08-19T02:34:04.318Z,73.36
2022-08-19T02:34:37.486Z,73.36
2022-08-19T02:35:12.339Z,73.30
2022-08-19T02:35:47.952Z,73.46
2022-08-19T02:36:21.363Z,73.71
2022-08-19T02:36:55.312Z,73.64
2022-08-19T02:37:47.587Z,73.62
2022-08-19T02:38:26.648Z,73.73
2022-08-19T02:39:00.002Z,73.37
2022-08-19T02:39:33.620Z,73.41
2022-08-19T02:40:12.740Z,73.39
2022-08-19T02:40:53.011Z,73.41
2022-08-19T02:41:29.305Z,73.41
2022-08-19T02:42:03.316Z,73.34
2022-08-19T02:42:36.628Z,73.50
2022-08-19T02:43:10.428Z,73.27
2022-08-19T02:44:22.927Z,73.37
2022-08-19T02:44:38.334Z,73.64
2022-08-19T02:45:11.772Z,73.88
2022-08-19T02:45:45.086Z,73.83
2022-08-19T02:46:19.278Z,73.70
2022-08-19T02:46:52.631Z,73.74
2022-08-19T02:47:26.250Z,73.81
2022-08-19T02:47:59.344Z,74.10
2022-08-19T02:48:34.168Z,74.28
2022-08-19T02:49:09.338Z,74.62
2022-08-19T02:49:43.047Z,74.69
2022-08-19T02:50:16.206Z,74.71
2022-08-19T02:50:56.516Z,74.78
2022-08-19T02:51:40.044Z,74.81
2022-08-19T02:52:13.710Z,74.75
2022-08-19T02:52:46.874Z,74.73
2022-08-19T02:53:20.295Z,74.92
2022-08-19T02:53:54.716Z,75.00
2022-08-19T02:54:28.553Z,74.78
2022-08-19T02:55:02.466Z,74.75
2022-08-19T02:55:46.028Z,74.80
2022-08-19T02:56:21.162Z,75.10
2022-08-19T02:56:54.335Z,75.02
2022-08-19T02:57:28.784Z,74.93
2022-08-19T02:58:02.734Z,74.95
2022-08-19T02:58:41.979Z,75.03
2022-08-19T02:59:16.444Z,75.20
2022-08-19T02:59:49.564Z,75.21
2022-08-19T03:00:22.777Z,75.36
2022-08-19T03:00:58.123Z,75.40
2022-08-19T03:01:33.718Z,75.36
2022-08-19T03:02:06.810Z,75.37
2022-08-19T03:02:40.690Z,75.43
2022-08-19T03:03:13.888Z,75.39
2022-08-19T03:03:47.881Z,75.31
2022-08-19T03:04:20.963Z,75.33
2022-08-19T03:04:54.123Z,75.24
2022-08-19T03:05:55.761Z,75.51
2022-08-19T03:06:23.021Z,75.83
2022-08-19T03:06:59.569Z,76.28
2022-08-19T03:07:36.436Z,76.44
2022-08-19T03:08:13.708Z,76.13
2022-08-19T03:08:48.614Z,76.10
2022-08-19T03:09:22.086Z,75.84
2022-08-19T03:09:55.380Z,75.85
2022-08-19T03:10:29.122Z,75.95
2022-08-19T03:11:02.255Z,75.86
2022-08-19T03:11:36.582Z,75.86
2022-08-19T03:12:09.789Z,75.62
2022-08-19T03:12:43.058Z,75.66
2022-08-19T03:13:19.613Z,75.63
2022-08-19T03:13:54.983Z,75.81
2022-08-19T03:14:29.148Z,75.83
2022-08-19T03:15:02.324Z,75.70
2022-08-19T03:15:35.464Z,75.62
2022-08-19T03:16:08.559Z,75.76
2022-08-19T03:16:53.591Z,75.77
2022-08-19T03:17:26.711Z,75.80
2022-08-19T03:17:59.802Z,75.56
2022-08-19T03:18:32.994Z,75.45
2022-08-19T03:19:06.143Z,75.36
2022-08-19T03:19:39.552Z,75.24
2022-08-19T03:20:12.778Z,75.19
2022-08-19T03:20:49.310Z,75.11
2022-08-19T03:21:26.840Z,75.20
2022-08-19T03:31:43.423Z,74.16
2022-08-19T03:32:32.229Z,74.44
2022-08-19T03:33:07.160Z,74.54
2022-08-19T03:33:43.084Z,74.42
2022-08-19T03:34:27.450Z,74.39
2022-08-19T03:35:00.941Z,74.48
2022-08-19T03:35:34.566Z,74.56
2022-08-19T03:36:16.318Z,74.59
2022-08-19T03:36:49.853Z,74.67
2022-08-19T03:37:23.686Z,74.58
2022-08-19T03:37:58.230Z,74.52
2022-08-19T03:38:31.688Z,74.64
2022-08-19T03:39:05.691Z,74.51
2022-08-19T03:39:40.771Z,74.44
2022-08-19T03:40:16.710Z,74.41
2022-08-19T03:40:50.196Z,74.45
2022-08-19T03:41:26.055Z,74.49
2022-08-19T03:42:38.643Z,74.66
2022-08-19T03:43:11.395Z,74.51
2022-08-19T03:43:48.066Z,74.44
2022-08-19T03:44:23.581Z,74.50
2022-08-19T03:44:56.892Z,74.70
2022-08-19T03:45:30.425Z,74.79
2022-08-19T03:46:06.553Z,74.93
2022-08-19T03:46:39.777Z,75.15
2022-08-19T03:47:18.141Z,75.32
2022-08-19T03:47:51.282Z,75.49
2022-08-19T03:48:24.962Z,75.62
2022-08-19T03:49:00.464Z,75.70
2022-08-19T03:49:36.875Z,75.68
2022-08-19T03:50:10.548Z,75.84
2022-08-19T03:50:44.621Z,75.85
2022-08-19T03:51:30.706Z,75.85
2022-08-19T03:52:08.608Z,75.83
2022-08-19T03:52:45.438Z,75.78
2022-08-19T03:53:20.213Z,75.76
2022-08-19T03:53:56.019Z,75.85
2022-08-19T03:54:30.250Z,75.88
2022-08-19T03:55:04.558Z,75.90
2022-08-19T03:55:42.558Z,75.86
2022-08-19T03:56:16.604Z,75.89
2022-08-19T03:56:51.975Z,75.82
2022-08-19T03:57:25.159Z,75.75
2022-08-19T03:58:05.544Z,75.79
2022-08-19T03:58:38.956Z,75.82
2022-08-19T03:59:23.648Z,75.90
2022-08-19T03:59:56.786Z,75.92
2022-08-19T04:00:46.994Z,76.02
2022-08-19T04:01:34.890Z,76.00
2022-08-19T04:02:12.196Z,76.07
2022-08-19T04:02:56.513Z,76.06
2022-08-19T04:03:31.948Z,76.13
2022-08-19T04:04:05.767Z,76.11
2022-08-19T04:04:41.511Z,76.12
2022-08-19T04:05:15.691Z,76.21
2022-08-19T04:05:48.918Z,76.22
2022-08-19T04:06:25.441Z,76.27
2022-08-19T04:06:58.657Z,76.39
2022-08-19T04:07:31.853Z,76.36
2022-08-19T04:08:09.702Z,76.40
2022-08-19T04:08:47.396Z,76.42
2022-08-19T04:09:21.795Z,76.45
2022-08-19T04:09:55.083Z,76.53
2022-08-19T04:10:29.922Z,76.51
2022-08-19T04:11:07.853Z,76.49
2022-08-19T04:11:45.155Z,76.42
2022-08-19T04:12:18.725Z,76.38
2022-08-19T04:12:52.071Z,76.34
2022-08-19T04:13:25.316Z,76.38
2022-08-19T04:13:58.714Z,76.37
2022-08-19T04:14:32.900Z,76.44
2022-08-19T04:15:07.331Z,76.48
2022-08-19T04:15:44.750Z,76.49
2022-08-19T04:16:21.074Z,76.48
2022-08-19T04:17:06.142Z,76.43
2022-08-19T04:17:39.327Z,76.45
2022-08-19T04:18:12.629Z,76.44
2022-08-19T04:18:46.018Z,76.43
2022-08-19T04:19:20.391Z,76.48
2022-08-19T04:19:53.609Z,76.45
2022-08-19T04:20:27.328Z,76.45
2022-08-19T04:21:02.077Z,76.40
2022-08-19T04:21:35.811Z,76.40
2022-08-19T04:22:09.076Z,76.37
2022-08-19T04:22:42.400Z,76.32
2022-08-19T04:23:16.292Z,76.28
2022-08-19T04:23:50.064Z,76.28
2022-08-19T04:24:26.377Z,76.30
2022-08-19T04:24:59.646Z,76.33
2022-08-19T04:25:38.497Z,76.34
2022-08-19T04:26:35.096Z,76.38
2022-08-19T04:27:08.339Z,76.34
2022-08-19T04:27:48.064Z,76.21
2022-08-19T04:28:21.174Z,76.24
2022-08-19T04:28:54.956Z,76.06
2022-08-19T04:29:28.807Z,76.07
2022-08-19T04:30:02.028Z,76.05
2022-08-19T04:31:01.221Z,76.02
2022-08-19T04:31:36.975Z,76.08
2022-08-19T04:32:10.240Z,75.92
2022-08-19T04:32:44.944Z,75.89
2022-08-19T04:33:23.995Z,75.95
2022-08-19T04:34:02.707Z,75.92
2022-08-19T04:34:35.977Z,75.90
2022-08-19T04:35:17.473Z,75.83
2022-08-19T04:35:54.000Z,75.84
2022-08-19T04:36:34.281Z,75.77
2022-08-19T04:37:14.466Z,75.80
2022-08-19T04:37:47.800Z,75.79
2022-08-19T04:38:25.840Z,75.72
2022-08-19T04:39:02.131Z,75.78
2022-08-19T04:39:54.108Z,75.87
2022-08-19T04:40:52.399Z,75.96
2022-08-19T04:41:45.450Z,75.92
2022-08-19T04:42:39.021Z,75.94
2022-08-19T04:43:15.152Z,75.96
2022-08-19T04:43:51.731Z,75.94
2022-08-19T04:44:25.208Z,75.94
2022-08-19T04:45:00.026Z,75.92
2022-08-19T04:45:39.460Z,75.92
2022-08-19T04:46:37.534Z,75.96
2022-08-19T04:47:11.174Z,75.99
2022-08-19T04:47:47.072Z,75.93
2022-08-19T04:48:28.138Z,75.91
2022-08-19T04:49:10.343Z,75.81
2022-08-19T04:49:43.827Z,75.93
2022-08-19T04:50:17.108Z,76.06
2022-08-19T04:50:50.410Z,75.99
2022-08-19T04:51:24.312Z,75.97
2022-08-19T04:51:57.457Z,76.02
2022-08-19T04:52:33.424Z,75.99
2022-08-19T04:53:06.509Z,75.96
2022-08-19T04:53:43.540Z,75.98
2022-08-19T04:54:37.248Z,76.02
2022-08-19T04:55:13.824Z,76.26
2022-08-19T04:55:46.886Z,76.29
2022-08-19T04:56:27.337Z,76.33
2022-08-19T04:57:00.520Z,76.37
2022-08-19T04:57:33.599Z,76.23
2022-08-19T04:58:07.880Z,76.15
2022-08-19T04:58:43.779Z,76.16
2022-08-19T04:59:19.989Z,76.18
2022-08-19T04:59:57.331Z,76.02
2022-08-19T05:00:30.579Z,76.01
2022-08-19T05:01:05.206Z,76.27
2022-08-19T05:01:38.464Z,76.32
2022-08-19T05:02:11.736Z,76.25
2022-08-19T05:02:44.855Z,76.35
2022-08-19T05:03:18.615Z,76.28
2022-08-19T05:03:51.868Z,76.16
2022-08-19T05:04:24.909Z,76.06
2022-08-19T05:05:00.860Z,76.07
2022-08-19T05:05:45.083Z,76.26
2022-08-19T05:06:21.073Z,76.15
2022-08-19T05:07:00.913Z,76.07
2022-08-19T05:07:35.408Z,76.08
2022-08-19T05:08:09.004Z,76.03
2022-08-19T05:08:44.606Z,75.86
2022-08-19T05:09:18.215Z,75.71
2022-08-19T05:09:58.323Z,75.73
2022-08-19T05:10:32.434Z,75.97
2022-08-19T05:11:15.711Z,76.00
2022-08-19T05:11:54.140Z,76.09
2022-08-19T05:12:30.003Z,76.10
2022-08-19T05:13:03.915Z,76.22
2022-08-19T05:13:37.039Z,76.12
2022-08-19T05:14:14.219Z,75.95
2022-08-19T05:14:48.512Z,75.93
2022-08-19T05:15:21.718Z,75.92
2022-08-19T05:15:58.348Z,75.96
2022-08-19T05:16:32.725Z,75.94
2022-08-19T05:17:26.112Z,75.86
2022-08-19T05:18:18.190Z,75.85
2022-08-19T05:19:13.779Z,75.87
2022-08-19T05:20:25.790Z,75.78
2022-08-19T05:21:17.597Z,75.71
2022-08-19T05:22:09.776Z,75.61
2022-08-19T05:22:46.586Z,75.62
2022-08-19T05:23:22.794Z,75.66
2022-08-19T05:23:56.432Z,75.52
2022-08-19T05:24:30.631Z,75.48
2022-08-19T05:25:16.368Z,75.54
2022-08-19T05:25:49.757Z,75.56
2022-08-19T05:26:23.128Z,75.46
2022-08-19T05:27:00.352Z,75.47
2022-08-19T05:27:34.013Z,75.67
2022-08-19T05:28:07.096Z,75.50
2022-08-19T05:28:40.492Z,75.51
2022-08-19T05:29:16.828Z,75.60
2022-08-19T05:29:49.944Z,75.60
2022-08-19T05:30:30.241Z,75.59
2022-08-19T05:31:15.728Z,75.55
2022-08-19T05:31:53.121Z,75.58
2022-08-19T05:32:26.423Z,75.51
2022-08-19T05:32:59.725Z,75.48
2022-08-19T05:33:32.897Z,75.56
2022-08-19T05:34:07.417Z,75.49
2022-08-19T05:34:53.748Z,75.62
2022-08-19T05:35:27.031Z,75.63
2022-08-19T05:36:00.511Z,75.66
2022-08-19T05:36:44.421Z,75.56
2022-08-19T05:37:18.363Z,75.50
2022-08-19T05:37:52.694Z,75.49
2022-08-19T05:38:32.182Z,75.62
2022-08-19T05:39:05.765Z,75.55
2022-08-19T05:39:39.559Z,75.47
2022-08-19T05:40:12.927Z,75.44
2022-08-19T05:40:48.268Z,75.53
2022-08-19T05:41:24.505Z,75.72
2022-08-19T05:42:00.665Z,75.69
2022-08-19T05:42:33.770Z,75.80
2022-08-19T05:43:09.254Z,75.58
2022-08-19T05:43:42.968Z,75.28
2022-08-19T05:44:18.027Z,75.21
2022-08-19T05:44:52.391Z,75.24
2022-08-19T05:45:26.087Z,75.28
2022-08-19T05:45:59.637Z,75.16
2022-08-19T05:46:33.600Z,75.20
2022-08-19T05:47:09.702Z,75.24
2022-08-19T05:47:42.850Z,75.22
2022-08-19T05:48:16.131Z,75.16
2022-08-19T05:48:49.889Z,75.08
2022-08-19T05:49:28.483Z,75.10
2022-08-19T05:50:05.032Z,75.14
2022-08-19T05:50:40.652Z,74.76
2022-08-19T05:51:14.601Z,74.49
2022-08-19T05:51:51.235Z,74.42
2022-08-19T05:52:25.893Z,74.14
2022-08-19T05:52:59.931Z,74.16
2022-08-19T05:53:34.924Z,74.18
2022-08-19T05:54:14.627Z,74.23
2022-08-19T05:54:51.445Z,74.21
2022-08-19T05:55:25.134Z,74.35
2022-08-19T05:55:58.404Z,74.37
2022-08-19T05:56:32.970Z,74.41
2022-08-19T05:57:06.275Z,74.49
2022-08-19T05:57:39.767Z,74.54
2022-08-19T05:58:13.012Z,74.61
2022-08-19T05:58:46.755Z,74.46
2022-08-19T05:59:22.684Z,74.10
2022-08-19T06:00:01.486Z,73.93
2022-08-19T06:00:36.039Z,73.86
2022-08-19T06:01:17.711Z,73.85
2022-08-19T06:01:52.816Z,73.80
2022-08-19T06:02:29.929Z,73.46
2022-08-19T06:03:11.866Z,73.34
2022-08-19T06:03:48.917Z,73.18
2022-08-19T06:04:23.330Z,72.97
2022-08-19T06:04:56.704Z,72.85
2022-08-19T06:05:31.554Z,72.61
2022-08-19T06:06:06.668Z,72.33
2022-08-19T06:06:40.429Z,72.29
2022-08-19T06:07:14.080Z,72.30
2022-08-19T06:07:48.311Z,72.28
2022-08-19T06:08:33.490Z,72.32
2022-08-19T06:09:09.183Z,72.45
2022-08-19T06:09:59.047Z,72.55
2022-08-19T06:10:34.813Z,72.46
2022-08-19T06:11:55.995Z,72.50
2022-08-19T06:12:33.000Z,72.56
2022-08-19T06:13:07.126Z,72.01
2022-08-19T06:13:40.385Z,71.59
2022-08-19T06:14:18.366Z,71.35
2022-08-19T06:14:56.036Z,71.41
2022-08-19T06:15:34.995Z,71.76
2022-08-19T06:16:08.624Z,71.43
2022-08-19T06:16:43.507Z,71.20
2022-08-19T06:17:17.282Z,71.19
2022-08-19T06:17:52.450Z,71.00
2022-08-19T06:18:25.954Z,70.95
2022-08-19T06:19:01.879Z,71.02
2022-08-19T06:19:41.057Z,70.86
2022-08-19T06:20:16.230Z,70.82
2022-08-19T06:20:55.993Z,70.85
2022-08-19T06:21:31.361Z,70.84
2022-08-19T06:22:05.907Z,70.93
2022-08-19T06:22:44.339Z,70.91
2022-08-19T06:23:17.919Z,70.69
2022-08-19T06:23:53.361Z,70.60
2022-08-19T06:24:29.073Z,70.73
2022-08-19T06:25:02.682Z,70.76
2022-08-19T06:25:37.206Z,70.66
2022-08-19T06:26:13.797Z,70.58
2022-08-19T06:27:27.629Z,70.56
2022-08-19T06:28:16.270Z,70.61
2022-08-19T06:28:50.156Z,70.68
2022-08-19T06:29:25.608Z,70.50
2022-08-19T06:29:58.869Z,70.02
2022-08-19T06:30:32.256Z,69.76
2022-08-19T06:31:08.710Z,69.36
2022-08-19T06:31:45.596Z,69.43
2022-08-19T06:32:20.486Z,69.27
2022-08-19T06:32:53.781Z,68.93
2022-08-19T06:33:27.198Z,69.06
2022-08-19T06:34:05.104Z,69.20
2022-08-19T06:34:38.378Z,69.34
2022-08-19T06:35:12.517Z,69.26
2022-08-19T06:36:37.389Z,68.96
2022-08-19T06:37:10.661Z,68.89
2022-08-19T06:37:44.228Z,68.83
2022-08-19T06:38:17.412Z,69.02
2022-08-19T06:38:50.712Z,68.99
2022-08-19T06:39:26.812Z,68.97
2022-08-19T06:40:00.404Z,69.04
2022-08-19T06:40:33.701Z,69.23
2022-08-19T06:41:08.127Z,69.39
2022-08-19T06:41:49.364Z,69.59
2022-08-19T06:42:25.210Z,69.45
2022-08-19T06:43:01.267Z,69.35
2022-08-19T06:43:41.223Z,69.30
2022-08-19T06:44:16.589Z,68.98
2022-08-19T06:44:53.586Z,68.81
2022-08-19T06:45:35.507Z,68.74
2022-08-19T06:46:15.049Z,68.54
2022-08-19T06:46:53.582Z,68.35
2022-08-19T06:47:29.071Z,68.29
2022-08-19T06:48:02.634Z,68.26
2022-08-19T06:48:44.952Z,68.28
2022-08-19T06:49:19.532Z,68.29
2022-08-19T06:50:02.918Z,68.17
2022-08-19T06:50:36.762Z,68.00
2022-08-19T06:51:16.842Z,67.67
2022-08-19T06:51:52.610Z,67.66
2022-08-19T06:52:25.820Z,67.68
2022-08-19T06:53:03.593Z,67.71
2022-08-19T06:53:38.271Z,67.77
2022-08-19T06:54:19.001Z,67.67
2022-08-19T06:54:55.763Z,67.56
2022-08-19T06:55:31.509Z,67.43
2022-08-19T06:56:06.895Z,67.36
2022-08-19T06:56:40.243Z,67.13
2022-08-19T06:57:16.301Z,66.52
2022-08-19T06:57:52.269Z,66.56
2022-08-19T06:58:25.628Z,66.78
2022-08-19T06:58:59.968Z,67.00
2022-08-19T06:59:36.333Z,66.98
2022-08-19T07:00:15.041Z,66.73
2022-08-19T07:00:48.200Z,66.86
2022-08-19T07:01:21.756Z,67.17
2022-08-19T07:01:57.973Z,67.34
2022-08-19T07:02:31.442Z,67.23
2022-08-19T07:03:08.240Z,67.22
2022-08-19T07:03:42.098Z,67.13
2022-08-19T07:04:17.781Z,66.83
2022-08-19T07:04:52.827Z,66.51
2022-08-19T07:05:26.421Z,66.44
2022-08-19T07:06:09.815Z,66.25
2022-08-19T07:06:55.060Z,66.19
2022-08-19T07:07:28.661Z,65.99
2022-08-19T07:08:04.964Z,65.79
2022-08-19T07:08:42.373Z,65.71
2022-08-19T07:09:19.424Z,65.68
2022-08-19T07:09:59.974Z,65.69
2022-08-19T07:10:36.449Z,65.39
2022-08-19T07:11:11.763Z,65.24
2022-08-19T07:11:50.418Z,64.97
2022-08-19T07:12:23.748Z,64.89
2022-08-19T07:12:57.261Z,64.70
2022-08-19T07:13:30.785Z,64.51
2022-08-19T07:14:04.264Z,64.53
2022-08-19T07:14:38.877Z,64.69
2022-08-19T07:15:13.974Z,64.71
2022-08-19T07:15:48.204Z,64.58
2022-08-19T07:16:29.131Z,64.66
2022-08-19T07:17:03.144Z,64.69
2022-08-19T07:17:39.141Z,64.75
2022-08-19T07:18:12.474Z,64.88
2022-08-19T07:18:45.667Z,64.65
2022-08-19T07:19:21.356Z,64.51
2022-08-19T07:19:54.849Z,64.42
2022-08-19T07:20:29.537Z,64.42
2022-08-19T07:21:11.160Z,64.38
2022-08-19T07:21:44.687Z,64.07
2022-08-19T07:22:19.237Z,64.37
2022-08-19T07:22:52.651Z,64.76
2022-08-19T07:23:27.115Z,64.85
2022-08-19T07:24:04.056Z,64.83
2022-08-19T07:24:40.410Z,64.77
2022-08-19T07:25:32.077Z,64.65
2022-08-19T07:26:10.753Z,64.41
2022-08-19T07:26:45.079Z,64.37
2022-08-19T07:27:18.881Z,64.19
2022-08-19T07:27:58.184Z,64.12
2022-08-19T07:28:33.395Z,63.92
2022-08-19T07:29:08.255Z,63.98
2022-08-19T07:29:41.821Z,64.17
2022-08-19T07:30:15.413Z,64.33
2022-08-19T07:30:49.999Z,64.39
2022-08-19T07:31:28.423Z,64.26
2022-08-19T07:32:05.773Z,64.31
2022-08-19T07:32:45.106Z,64.15
2022-08-19T07:33:19.425Z,64.10
2022-08-19T07:33:56.497Z,63.99
2022-08-19T07:34:31.768Z,63.78
2022-08-19T07:35:06.073Z,63.66
2022-08-19T07:35:39.410Z,63.64
2022-08-19T07:36:15.601Z,63.70
2022-08-19T07:36:48.901Z,63.58
2022-08-19T07:37:22.086Z,63.24
2022-08-19T07:37:55.839Z,63.08
2022-08-19T07:38:29.321Z,63.12
2022-08-19T07:39:09.735Z,63.31
2022-08-19T07:39:43.063Z,63.70
2022-08-19T07:40:16.750Z,63.65
2022-08-19T07:40:50.059Z,63.46
2022-08-19T07:41:26.543Z,63.41
2022-08-19T07:42:02.139Z,63.42
2022-08-19T07:42:35.536Z,63.57
2022-08-19T07:43:12.337Z,63.74
2022-08-19T07:43:48.942Z,63.84
2022-08-19T07:44:22.748Z,63.82
2022-08-19T07:44:56.576Z,63.72
2022-08-19T07:45:30.665Z,63.80
2022-08-19T07:46:04.480Z,63.88
2022-08-19T07:46:41.477Z,63.90
2022-08-19T07:47:48.215Z,63.99
2022-08-19T07:48:10.145Z,64.05
2022-08-19T07:48:46.824Z,63.99
2022-08-19T07:49:21.647Z,63.88
2022-08-19T07:49:55.221Z,63.81
2022-08-19T07:50:28.599Z,63.79
2022-08-19T07:51:04.483Z,63.64
2022-08-19T07:51:38.449Z,63.52
2022-08-19T07:52:12.404Z,63.16
2022-08-19T07:52:49.021Z,63.17
2022-08-19T07:53:24.158Z,63.24
2022-08-19T07:53:57.915Z,63.06
2022-08-19T07:54:35.811Z,62.98
2022-08-19T07:55:40.334Z,63.14
2022-08-19T07:56:07.380Z,62.93
2022-08-19T07:56:41.589Z,62.77
2022-08-19T07:57:15.409Z,62.78
2022-08-19T07:57:49.822Z,62.67
2022-08-19T07:58:24.438Z,62.76
2022-08-19T07:58:58.393Z,62.46
2022-08-19T07:59:32.480Z,62.41
2022-08-19T08:00:08.253Z,62.36